Time;durP1;ratioP1;P1;durP2;ratioP2;P2;SDS_P1;SDS_P2;PMS_P1;PMS_P2;Temp;Humidity;BMP_temperature;BMP_pressure;BME280_temperature;BME280_humidity;BME280_pressure;Samples;Min_cycle;Max_cycle;Signal;HPM_P1;HPM_P2
2021/03/15 00:01:41;;;;;;;3.00;2.00;;;8.60;99.90;;;;;;5095371;28;20099;-54
2021/03/15 00:04:07;;;;;;;3.28;2.13;;;8.80;99.90;;;;;;5093139;28;20068;-53
2021/03/15 00:06:33;;;;;;;2.88;1.83;;;;;;;;;;5095265;28;20040;-54
2021/03/15 00:08:59;;;;;;;2.30;1.60;;;8.90;99.90;;;;;;5095254;28;20475;-54
2021/03/15 00:11:25;;;;;;;2.42;1.45;;;9.00;99.90;;;;;;5096726;28;20103;-54
2021/03/15 00:13:51;;;;;;;3.10;1.90;;;;;;;;;;5115625;28;20032;-54
2021/03/15 00:16:16;;;;;;;2.95;1.83;;;9.10;99.90;;;;;;5079482;28;20043;-53
2021/03/15 00:18:42;;;;;;;2.63;2.00;;;;;;;;;;5113198;28;20035;-53
2021/03/15 00:21:09;;;;;;;3.63;1.98;;;;;;;;;;5115272;28;20072;-52
2021/03/15 00:23:35;;;;;;;3.50;2.00;;;9.40;99.90;;;;;;5115385;28;20047;-52
2021/03/15 00:26:00;;;;;;;3.85;2.08;;;9.40;99.90;;;;;;5114813;28;20475;-52
2021/03/15 00:28:26;;;;;;;4.40;2.38;;;9.40;99.90;;;;;;5115471;28;20038;-53
2021/03/15 00:30:55;;;;;;;3.10;2.15;;;;;;;;;;5113187;28;20043;-53
2021/03/15 00:33:23;;;;;;;4.90;2.22;;;9.50;99.90;;;;;;5113974;27;20032;-54
2021/03/15 00:35:49;;;;;;;3.53;1.80;;;;;;;;;;5115096;28;20028;-55
2021/03/15 00:38:15;;;;;;;3.47;2.03;;;;;;;;;;5114935;28;20029;-52
2021/03/15 00:40:41;;;;;;;2.17;1.67;;;;;;;;;;5114887;28;20026;-53
2021/03/15 00:43:07;;;;;;;3.17;2.28;;;9.60;99.90;;;;;;5115099;28;20030;-53
2021/03/15 00:45:33;;;;;;;3.10;1.63;;;9.40;99.90;;;;;;5112937;28;20036;-53
2021/03/15 00:47:59;;;;;;;2.97;1.92;;;;;;;;;;5114625;28;20357;-52
2021/03/15 00:50:39;;;;;;;4.13;2.30;;;8.90;99.90;;;;;;5114801;28;20107;-53
2021/03/15 00:53:06;;;;;;;2.03;1.58;;;9.00;99.90;;;;;;5114549;28;20139;-52
2021/03/15 00:55:32;;;;;;;3.42;2.13;;;;;;;;;;5114563;28;20516;-53
2021/03/15 00:57:58;;;;;;;4.70;2.10;;;8.70;99.90;;;;;;5114880;28;20058;-52
2021/03/15 01:00:29;;;;;;;4.97;2.30;;;8.80;99.90;;;;;;5114602;28;20102;-53
2021/03/15 01:02:55;;;;;;;3.47;1.90;;;8.70;99.90;;;;;;5114586;28;20096;-53
2021/03/15 01:05:23;;;;;;;2.72;1.80;;;;;;;;;;5114571;28;20028;-52
2021/03/15 01:07:49;;;;;;;2.90;1.50;;;8.40;99.90;;;;;;5114535;28;20092;-53
2021/03/15 01:10:19;;;;;;;1.80;1.42;;;8.40;99.90;;;;;;5114392;28;20027;-54
2021/03/15 01:12:45;;;;;;;2.15;1.48;;;8.20;99.90;;;;;;5114334;28;20024;-54
2021/03/15 01:15:12;;;;;;;2.08;1.70;;;8.10;99.90;;;;;;5114263;28;20031;-52
2021/03/15 01:17:41;;;;;;;2.00;1.73;;;8.10;99.90;;;;;;5114738;28;20082;-52
2021/03/15 01:20:08;;;;;;;2.15;1.75;;;8.10;99.90;;;;;;5114406;28;20478;-52
2021/03/15 01:22:36;;;;;;;1.58;1.40;;;8.00;99.90;;;;;;5114470;28;20108;-54
2021/03/15 01:25:04;;;;;;;1.85;1.48;;;7.90;99.90;;;;;;5114102;28;20020;-53
2021/03/15 01:27:33;;;;;;;2.47;1.40;;;7.90;99.90;;;;;;5114158;28;20032;-52
2021/03/15 01:29:58;;;;;;;1.40;1.10;;;7.90;99.90;;;;;;5114376;28;20051;-52
2021/03/15 01:32:25;;;;;;;0.95;0.85;;;;;;;;;;5111904;28;20186;-52
2021/03/15 01:34:50;;;;;;;1.40;1.10;;;7.60;99.90;;;;;;5114538;28;20023;-55
2021/03/15 01:37:16;;;;;;;1.00;0.88;;;7.50;99.90;;;;;;5113898;28;20031;-55
2021/03/15 01:39:42;;;;;;;1.25;1.10;;;7.50;99.90;;;;;;5111980;28;20028;-52
2021/03/15 01:42:08;;;;;;;1.83;1.35;;;;;;;;;;5114001;28;20100;-55
2021/03/15 01:44:34;;;;;;;4.18;1.20;;;;;;;;;;5113920;28;20028;-53
2021/03/15 01:47:00;;;;;;;2.17;1.05;;;7.20;99.90;;;;;;5113713;28;20467;-52
2021/03/15 01:49:26;;;;;;;1.67;1.23;;;;;;;;;;5113965;28;20101;-53
2021/03/15 01:51:54;;;;;;;1.27;1.13;;;7.00;99.90;;;;;;5113829;28;20039;-53
2021/03/15 01:54:21;;;;;;;2.65;1.52;;;7.10;99.90;;;;;;5113639;28;20443;-53
2021/03/15 01:56:47;;;;;;;2.50;1.50;;;;;;;;;;5114101;28;20020;-54
2021/03/15 01:59:17;;;;;;;2.85;1.50;;;;;;;;;;5114253;28;20390;-54
2021/03/15 02:01:46;;;;;;;1.50;1.38;;;;;;;;;;5114007;28;20039;-54
2021/03/15 02:04:13;;;;;;;2.55;1.50;;;6.70;99.90;;;;;;5114338;28;20030;-52
2021/03/15 02:06:39;;;;;;;2.33;1.67;;;6.70;99.90;;;;;;5113571;28;20497;-52
2021/03/15 02:09:05;;;;;;;1.60;1.08;;;6.70;99.90;;;;;;5111811;28;20039;-52
2021/03/15 02:11:49;;;;;;;2.25;1.50;;;6.70;99.90;;;;;;5112016;28;20042;-52
2021/03/15 02:14:34;;;;;;;2.72;2.10;;;;;;;;;;5114273;28;20028;-53
2021/03/15 02:17:24;;;;;;;1.95;1.50;;;6.30;99.90;;;;;;5114070;28;20050;-52
2021/03/15 02:20:05;;;;;;;2.08;1.40;;;6.40;99.90;;;;;;5114024;28;20386;-52
2021/03/15 02:22:31;;;;;;;2.78;1.55;;;;;;;;;;5113862;28;20106;-53
2021/03/15 02:25:16;;;;;;;2.63;1.60;;;6.30;99.90;;;;;;5114245;28;20027;-52
2021/03/15 02:28:17;;;;;;;2.47;1.30;;;;;;;;;;5113332;28;20540;-54
2021/03/15 02:30:56;;;;;;;0.73;0.57;;;6.50;99.90;;;;;;5070600;28;20036;-52
2021/03/15 02:33:53;;;;;;;1.88;1.40;;;6.30;99.90;;;;;;5071391;28;20040;-52
2021/03/15 02:36:20;;;;;;;1.98;1.45;;;6.30;99.90;;;;;;5071559;28;20052;-53
2021/03/15 02:38:47;;;;;;;2.05;1.65;;;6.30;99.90;;;;;;5070910;28;20036;-52
2021/03/15 02:41:17;;;;;;;2.00;1.50;;;6.40;99.90;;;;;;5071179;28;20111;-53
2021/03/15 02:43:56;;;;;;;2.45;1.38;;;6.40;99.90;;;;;;5071146;28;20110;-53
2021/03/15 02:46:25;;;;;;;2.47;1.45;;;6.30;99.90;;;;;;5070832;28;20060;-53
2021/03/15 02:48:54;;;;;;;2.65;1.50;;;6.30;99.90;;;;;;5070615;28;20112;-52
2021/03/15 02:51:24;;;;;;;2.53;1.77;;;6.40;99.90;;;;;;5054434;28;20470;-53
2021/03/15 02:53:52;;;;;;;1.67;1.48;;;6.40;99.90;;;;;;5070936;28;20044;-54
2021/03/15 02:56:24;;;;;;;4.97;2.20;;;6.50;99.90;;;;;;5072627;28;20396;-53
2021/03/15 02:58:54;;;;;;;1.77;1.10;;;6.40;99.90;;;;;;5034303;28;20512;-55
2021/03/15 03:01:22;;;;;;;3.65;1.67;;;6.40;99.90;;;;;;5034609;28;20038;-54
2021/03/15 03:03:49;;;;;;;1.63;1.30;;;;;;;;;;5042624;28;20060;-52
2021/03/15 03:06:18;;;;;;;2.72;2.00;;;;;;;;;;5094977;28;20088;-53
2021/03/15 03:08:46;;;;;;;1.20;1.10;;;6.30;99.90;;;;;;5094401;28;20063;-52
2021/03/15 03:11:14;;;;;;;0.98;0.82;;;6.20;99.90;;;;;;5094654;28;20391;-52
2021/03/15 03:13:42;;;;;;;3.20;2.20;;;6.00;99.90;;;;;;5094476;28;20109;-53
2021/03/15 03:16:09;;;;;;;2.47;1.77;;;6.10;99.90;;;;;;5094465;28;20412;-53
2021/03/15 03:18:37;;;;;;;1.60;1.30;;;;;;;;;;5074137;28;20441;-53
2021/03/15 03:21:04;;;;;;;1.50;0.57;;;5.90;99.90;;;;;;5074371;28;20075;-52
2021/03/15 03:23:35;;;;;;;1.73;1.60;;;5.90;99.90;;;;;;5040290;28;20060;-52
2021/03/15 03:26:04;;;;;;;2.00;1.48;;;6.00;99.90;;;;;;5074087;28;20876;-53
2021/03/15 03:28:31;;;;;;;0.55;0.52;;;5.90;99.90;;;;;;5033811;28;20037;-53
2021/03/15 03:31:01;;;;;;;2.10;1.75;;;5.60;99.90;;;;;;5053136;28;20124;-54
2021/03/15 03:33:27;;;;;;;0.93;0.93;;;5.80;99.90;;;;;;5054182;28;20067;-53
2021/03/15 03:35:53;;;;;;;2.85;1.80;;;;;;;;;;5053949;28;20073;-53
2021/03/15 03:38:19;;;;;;;2.00;1.63;;;5.50;99.90;;;;;;5037012;28;20713;-52
2021/03/15 03:40:45;;;;;;;1.10;0.75;;;;;;;;;;5054075;28;20104;-53
2021/03/15 03:43:11;;;;;;;1.08;0.98;;;5.50;99.90;;;;;;5053566;28;20045;-54
2021/03/15 03:45:37;;;;;;;2.40;1.60;;;;;;;;;;5054001;28;20025;-52
2021/03/15 03:48:04;;;;;;;0.57;0.57;;;;;;;;;;5036968;28;20084;-52
2021/03/15 03:50:33;;;;;;;0.73;0.70;;;5.40;99.90;;;;;;5071420;28;20388;-53
2021/03/15 03:53:14;;;;;;;0.88;0.77;;;5.20;99.90;;;;;;5056568;28;20484;-53
2021/03/15 03:55:49;;;;;;;1.58;1.38;;;5.20;99.90;;;;;;5073275;28;20071;-52
2021/03/15 03:58:18;;;;;;;0.75;0.70;;;5.10;99.90;;;;;;5073419;28;20064;-54
2021/03/15 04:00:46;;;;;;;1.00;0.80;;;4.90;99.90;;;;;;5116444;27;20608;-54
2021/03/15 04:03:17;;;;;;;0.90;0.80;;;4.90;99.90;;;;;;5116500;28;20438;-53
2021/03/15 04:05:49;;;;;;;0.85;0.80;;;4.80;99.90;;;;;;5116421;28;20132;-53
2021/03/15 04:08:22;;;;;;;2.22;1.65;;;4.80;99.90;;;;;;5115828;28;20087;-55
2021/03/15 04:10:49;;;;;;;1.90;1.48;;;4.70;99.90;;;;;;5115926;28;20505;-54
2021/03/15 04:13:19;;;;;;;1.05;0.98;;;4.70;99.90;;;;;;5116407;28;20027;-54
2021/03/15 04:15:47;;;;;;;1.50;1.20;;;4.70;99.90;;;;;;5131362;27;20432;-52
2021/03/15 04:18:21;;;;;;;0.77;0.77;;;4.70;99.90;;;;;;5096858;28;20092;-53
2021/03/15 04:20:53;;;;;;;1.00;0.85;;;4.80;99.90;;;;;;5113506;28;20036;-54
2021/03/15 04:23:24;;;;;;;1.52;1.10;;;4.60;99.90;;;;;;5113469;28;20499;-51
2021/03/15 04:25:51;;;;;;;1.88;1.08;;;4.60;99.90;;;;;;5072374;28;20059;-51
2021/03/15 04:28:18;;;;;;;1.42;0.90;;;4.60;99.90;;;;;;5072679;28;20049;-51
2021/03/15 04:30:44;;;;;;;1.92;1.73;;;4.70;99.90;;;;;;5072905;28;20060;-53
2021/03/15 04:33:11;;;;;;;1.63;1.42;;;4.90;99.90;;;;;;5072936;28;20028;-52
2021/03/15 04:35:40;;;;;;;1.83;1.33;;;4.90;99.90;;;;;;5072706;28;20033;-53
2021/03/15 04:38:08;;;;;;;2.05;1.63;;;5.00;99.90;;;;;;5034859;28;20033;-53
2021/03/15 04:40:36;;;;;;;2.15;1.95;;;5.20;99.90;;;;;;5052591;28;20048;-52
2021/03/15 04:43:03;;;;;;;1.95;1.10;;;5.20;99.90;;;;;;5052514;28;20175;-54
2021/03/15 04:45:34;;;;;;;3.85;1.50;;;5.20;99.90;;;;;;5035948;28;20039;-53
2021/03/15 04:48:06;;;;;;;1.10;1.00;;;5.20;99.90;;;;;;5036145;28;20052;-52
2021/03/15 04:50:33;;;;;;;1.52;1.42;;;5.20;99.90;;;;;;5052369;28;20035;-53
2021/03/15 04:53:02;;;;;;;1.95;1.27;;;5.30;99.90;;;;;;5072065;28;20040;-51
2021/03/15 04:55:28;;;;;;;0.82;0.80;;;5.30;99.90;;;;;;5072444;28;20048;-53
2021/03/15 04:57:57;;;;;;;1.42;1.10;;;5.30;99.90;;;;;;5091537;28;20535;-53
2021/03/15 05:00:23;;;;;;;2.10;1.40;;;5.10;99.90;;;;;;5092675;28;20028;-52
2021/03/15 05:02:51;;;;;;;0.73;0.73;;;5.10;99.90;;;;;;5075549;28;20123;-52
2021/03/15 05:05:17;;;;;;;0.52;0.50;;;5.00;99.90;;;;;;5092043;28;20089;-54
2021/03/15 05:07:46;;;;;;;1.38;1.05;;;4.80;99.90;;;;;;5092357;28;20040;-53
2021/03/15 05:10:13;;;;;;;1.70;1.20;;;4.80;99.90;;;;;;5076978;28;20043;-52
2021/03/15 05:12:40;;;;;;;0.68;0.68;;;4.90;99.90;;;;;;5112871;28;20110;-52
2021/03/15 05:15:07;;;;;;;1.52;1.27;;;4.90;99.90;;;;;;5114814;28;20081;-53
2021/03/15 05:17:38;;;;;;;1.40;1.30;;;4.90;99.90;;;;;;5114924;28;20016;-53
2021/03/15 05:20:14;;;;;;;0.82;0.82;;;5.00;99.90;;;;;;5113878;28;20129;-52
2021/03/15 05:22:42;;;;;;;1.13;1.02;;;5.00;99.90;;;;;;5114506;28;20084;-52
2021/03/15 05:25:10;;;;;;;1.05;1.02;;;4.90;99.90;;;;;;5114679;28;20034;-54
2021/03/15 05:27:36;;;;;;;1.42;1.30;;;4.90;99.90;;;;;;5078382;28;20043;-52
2021/03/15 05:30:11;;;;;;;0.90;0.90;;;5.00;99.90;;;;;;5132819;27;20036;-51
2021/03/15 05:32:40;;;;;;;1.30;1.20;;;5.00;99.90;;;;;;5066329;27;20035;-52
2021/03/15 05:35:07;;;;;;;1.25;1.08;;;5.00;99.90;;;;;;5132311;27;20035;-52
2021/03/15 05:37:33;;;;;;;1.30;1.20;;;5.00;99.90;;;;;;5091655;28;20373;-52
2021/03/15 05:39:58;;;;;;;1.27;1.17;;;5.00;99.90;;;;;;5091782;28;20036;-53
2021/03/15 05:42:38;;;;;;;2.05;1.35;;;4.70;99.90;;;;;;5091261;28;20039;-53
2021/03/15 05:45:23;;;;;;;1.73;1.20;;;4.70;99.90;;;;;;5091835;28;20044;-52
2021/03/15 05:48:14;;;;;;;1.00;0.90;;;4.80;99.90;;;;;;5051258;28;20052;-56
2021/03/15 05:51:10;;;;;;;0.85;0.77;;;4.60;99.90;;;;;;4991462;28;20066;-52
2021/03/15 05:53:50;;;;;;;0.40;0.40;;;4.40;99.90;;;;;;4991574;28;20034;-52
2021/03/15 05:56:52;;;;;;;1.30;1.20;;;4.30;99.90;;;;;;4991698;28;20037;-53
2021/03/15 06:00:02;;;;;;;1.10;0.90;;;4.40;99.90;;;;;;4992314;28;20160;-53
2021/03/15 06:02:37;;;;;;;1.30;1.08;;;4.20;99.90;;;;;;4972301;28;20038;-54
2021/03/15 06:05:20;;;;;;;3.00;1.38;;;4.20;99.90;;;;;;4991848;28;20042;-53
2021/03/15 06:07:50;;;;;;;0.63;0.63;;;4.10;99.90;;;;;;4991962;28;20046;-53
2021/03/15 06:10:48;;;;;;;0.90;0.85;;;3.90;99.90;;;;;;4992053;28;20421;-51
2021/03/15 06:13:15;;;;;;;0.75;0.75;;;3.80;99.90;;;;;;4989067;28;20061;-53
2021/03/15 06:15:43;;;;;;;1.25;0.73;;;3.80;99.90;;;;;;5006227;28;20160;-53
2021/03/15 06:18:12;;;;;;;0.38;0.38;;;3.80;99.90;;;;;;5014569;28;20033;-52
2021/03/15 06:20:40;;;;;;;0.50;0.50;;;3.60;99.90;;;;;;5030908;28;20385;-54
2021/03/15 06:23:06;;;;;;;2.15;1.95;;;;;;;;;;5031147;28;20069;-52
2021/03/15 06:25:33;;;;;;;1.67;1.42;;;;;;;;;;5067537;28;20500;-54
2021/03/15 06:28:00;;;;;;;1.17;1.10;;;;;;;;;;5116676;28;20478;-53
2021/03/15 06:30:27;;;;;;;1.77;1.63;;;;;;;;;;5132430;27;20058;-52
2021/03/15 06:32:54;;;;;;;2.13;1.17;;;;;;;;;;5136032;27;20034;-53
2021/03/15 06:35:20;;;;;;;0.95;0.93;;;;;;;;;;5132319;27;20409;-53
2021/03/15 06:37:47;;;;;;;0.70;0.70;;;;;;;;;;5117976;28;20506;-53
2021/03/15 06:40:14;;;;;;;1.23;1.00;;;;;;;;;;5117892;28;20036;-52
2021/03/15 06:42:42;;;;;;;1.30;1.20;;;;;;;;;;5132825;27;20063;-57
2021/03/15 06:45:15;;;;;;;1.05;0.73;;;;;;;;;;5117519;28;20022;-57
2021/03/15 06:47:41;;;;;;;0.30;0.30;;;;;;;;;;5117243;28;20527;-55
2021/03/15 06:50:09;;;;;;;1.83;1.38;;;;;;;;;;5117368;28;20077;-57
2021/03/15 06:52:56;;;;;;;1.95;1.23;;;;;;;;;;5135455;27;20139;-53
2021/03/15 06:55:43;;;;;;;0.98;0.93;;;3.60;99.90;;;;;;5136069;27;20038;-53
2021/03/15 06:58:18;;;;;;;1.73;1.52;;;3.50;99.90;;;;;;5135137;27;20390;-54
2021/03/15 07:00:44;;;;;;;1.40;1.30;;;;;;;;;;5136042;27;20027;-54
2021/03/15 07:03:10;;;;;;;1.55;1.23;;;;;;;;;;5101139;27;20046;-53
2021/03/15 07:05:36;;;;;;;1.52;1.42;;;3.80;99.90;;;;;;5135031;27;20027;-58
2021/03/15 07:08:02;;;;;;;1.92;1.30;;;;;;;;;;5135500;27;20042;-57
2021/03/15 07:10:30;;;;;;;1.27;0.98;;;4.00;99.90;;;;;;5135873;27;20027;-57
2021/03/15 07:13:20;;;;;;;0.90;0.90;;;3.90;99.90;;;;;;5135017;27;20039;-56
2021/03/15 07:15:48;;;;;;;2.03;1.70;;;4.00;99.90;;;;;;5134786;27;20031;-56
2021/03/15 07:18:34;;;;;;;1.25;1.08;;;3.90;99.90;;;;;;5100822;27;20117;-54
2021/03/15 07:21:05;;;;;;;1.00;0.98;;;3.80;99.90;;;;;;5134972;27;20033;-58
2021/03/15 07:23:45;;;;;;;1.20;1.08;;;3.90;99.90;;;;;;5126562;27;20032;-54
2021/03/15 07:26:12;;;;;;;1.30;0.98;;;3.80;99.90;;;;;;5115012;28;20530;-54
2021/03/15 07:28:37;;;;;;;0.90;0.90;;;3.70;99.90;;;;;;5116052;27;20070;-60
2021/03/15 07:31:25;;;;;;;4.57;3.30;;;3.80;99.90;;;;;;5114746;28;20475;-55
2021/03/15 07:33:57;;;;;;;0.70;0.70;;;3.70;99.90;;;;;;5134632;27;20489;-57
2021/03/15 07:36:29;;;;;;;1.13;1.02;;;3.70;99.90;;;;;;5135102;27;20079;-55
2021/03/15 07:38:56;;;;;;;2.05;1.73;;;3.80;99.90;;;;;;5133292;27;20039;-48
2021/03/15 07:41:23;;;;;;;2.42;1.20;;;3.80;99.90;;;;;;5113852;27;20027;-49
2021/03/15 07:43:50;;;;;;;0.88;0.70;;;3.90;99.90;;;;;;5112784;28;20067;-46
2021/03/15 07:46:29;;;;;;;3.03;1.67;;;4.00;99.90;;;;;;5112599;28;20028;-54
2021/03/15 07:48:59;;;;;;;5.70;3.22;;;4.00;99.90;;;;;;5111905;28;20031;-49
2021/03/15 07:51:35;;;;;;;6.65;3.80;;;4.10;99.90;;;;;;5110788;28;20126;-52
2021/03/15 07:54:08;;;;;;;2.45;1.48;;;4.10;99.90;;;;;;5112151;28;20048;-51
2021/03/15 07:56:35;;;;;;;0.95;0.93;;;;;;;;;;5114043;28;20031;-54
2021/03/15 07:59:01;;;;;;;1.95;1.25;;;4.00;99.90;;;;;;5112890;28;20042;-52
2021/03/15 08:01:27;;;;;;;2.25;1.38;;;4.10;99.90;;;;;;5112398;28;20082;-54
2021/03/15 08:03:55;;;;;;;1.80;1.25;;;4.30;99.90;;;;;;5042489;28;20028;-49
2021/03/15 08:06:22;;;;;;;1.55;1.05;;;4.10;99.90;;;;;;5093329;28;20059;-52
2021/03/15 08:08:49;;;;;;;1.45;1.35;;;4.30;99.90;;;;;;5094339;28;20030;-50
2021/03/15 08:11:18;;;;;;;2.22;1.38;;;4.30;99.90;;;;;;5094206;28;20088;-52
2021/03/15 08:13:49;;;;;;;3.70;1.95;;;4.10;99.90;;;;;;5094264;28;20046;-54
2021/03/15 08:16:22;;;;;;;3.20;1.50;;;3.90;99.90;;;;;;5093867;28;20028;-52
2021/03/15 08:18:50;;;;;;;1.73;1.15;;;4.10;99.90;;;;;;5093565;28;20039;-54
2021/03/15 08:21:31;;;;;;;1.40;1.27;;;4.10;99.90;;;;;;5094033;28;20023;-54
2021/03/15 08:23:59;;;;;;;1.10;1.00;;;4.10;99.90;;;;;;5108870;28;20445;-53
2021/03/15 08:26:26;;;;;;;1.23;0.98;;;4.30;99.90;;;;;;5108706;28;20032;-53
2021/03/15 08:28:56;;;;;;;1.42;1.20;;;4.30;99.90;;;;;;5093939;28;20427;-55
2021/03/15 08:31:46;;;;;;;1.08;0.98;;;4.20;99.90;;;;;;5093414;28;20109;-50
2021/03/15 08:34:14;;;;;;;1.83;1.23;;;4.30;99.90;;;;;;5108336;28;20039;-51
2021/03/15 08:36:42;;;;;;;0.93;0.93;;;4.40;99.90;;;;;;5093637;28;20024;-53
2021/03/15 08:39:27;;;;;;;2.35;1.45;;;4.60;99.90;;;;;;5093658;28;20456;-53
2021/03/15 08:42:13;;;;;;;0.70;0.70;;;4.50;99.90;;;;;;5094047;28;20020;-55
2021/03/15 08:44:41;;;;;;;1.52;1.38;;;4.70;99.90;;;;;;5093878;28;20528;-48
2021/03/15 08:47:09;;;;;;;1.10;1.00;;;4.80;99.90;;;;;;5091198;28;20052;-47
2021/03/15 08:49:37;;;;;;;2.42;1.73;;;4.80;99.90;;;;;;5093412;28;20027;-50
2021/03/15 08:52:04;;;;;;;1.73;1.02;;;4.70;99.90;;;;;;5093091;28;20086;-48
2021/03/15 08:54:43;;;;;;;1.40;1.23;;;4.70;99.90;;;;;;5092670;28;20031;-48
2021/03/15 08:57:29;;;;;;;2.15;1.30;;;4.70;99.90;;;;;;5093298;28;20044;-48
2021/03/15 08:59:56;;;;;;;1.42;1.23;;;4.90;99.90;;;;;;5074089;28;20055;-48
2021/03/15 09:02:36;;;;;;;1.65;1.45;;;4.80;99.90;;;;;;5093423;28;20663;-50
2021/03/15 09:05:23;;;;;;;2.17;1.50;;;4.70;99.90;;;;;;5108329;28;20032;-48
2021/03/15 09:07:50;;;;;;;3.33;1.58;;;4.60;99.90;;;;;;5093642;28;20028;-50
2021/03/15 09:10:25;;;;;;;2.70;1.80;;;4.70;99.90;;;;;;5093079;28;20089;-50
2021/03/15 09:13:09;;;;;;;1.02;0.90;;;4.80;99.90;;;;;;5093335;28;20077;-48
2021/03/15 09:15:36;;;;;;;2.50;1.67;;;4.60;99.90;;;;;;5093311;28;20065;-49
2021/03/15 09:21:23;;;;;;;11.60;6.15;;;4.60;99.90;;;;;;5111665;28;20513;-47
2021/03/15 09:27:27;;;;;;;2.50;2.08;;;4.80;99.90;;;;;;5109387;28;20047;-47
2021/03/15 09:30:03;;;;;;;2.13;1.83;;;4.80;99.90;;;;;;5109651;28;20032;-50
2021/03/15 09:32:41;;;;;;;2.60;1.88;;;4.80;99.90;;;;;;5110041;28;20103;-47
2021/03/15 09:35:14;;;;;;;5.47;3.60;;;4.70;99.90;;;;;;5108898;28;20023;-49
2021/03/15 09:37:42;;;;;;;10.43;5.95;;;4.70;99.90;;;;;;5093247;28;20032;-49
2021/03/15 09:40:12;;;;;;;1.90;1.40;;;4.50;99.90;;;;;;5110309;28;20032;-49
2021/03/15 09:42:43;;;;;;;2.15;1.73;;;4.50;99.90;;;;;;5076066;28;20111;-48
2021/03/15 09:45:11;;;;;;;6.50;3.80;;;;;;;;;;5110155;28;20070;-47
2021/03/15 09:47:37;;;;;;;3.22;2.47;;;4.40;99.90;;;;;;5110089;28;20046;-47
2021/03/15 09:50:25;;;;;;;4.55;3.38;;;4.50;99.90;;;;;;5075292;28;20036;-61
2021/03/15 09:52:51;;;;;;;2.85;1.48;;;4.60;99.90;;;;;;5052345;28;20742;-47
2021/03/15 09:55:17;;;;;;;3.75;2.17;;;4.70;99.90;;;;;;5050087;28;20120;-49
2021/03/15 09:57:43;;;;;;;1.80;1.27;;;4.80;99.90;;;;;;5016806;28;20178;-49
2021/03/15 10:00:16;;;;;;;4.10;1.77;;;4.90;99.90;;;;;;5016773;28;20049;-50
2021/03/15 10:02:45;;;;;;;6.43;1.95;;;4.90;99.90;;;;;;4983883;28;20177;-48
2021/03/15 10:05:19;;;;;;;1.30;1.20;;;5.00;99.90;;;;;;5051520;28;20052;-49
2021/03/15 10:07:47;;;;;;;9.00;4.32;;;5.00;99.90;;;;;;5053764;28;20045;-50
2021/03/15 10:10:18;;;;;;;14.20;6.28;;;5.20;99.90;;;;;;5053728;28;20044;-45
2021/03/15 10:12:50;;;;;;;11.87;5.50;;;5.20;99.90;;;;;;5019904;28;20060;-47
2021/03/15 10:15:17;;;;;;;6.40;3.50;;;5.40;99.90;;;;;;4994570;28;20276;-47
2021/03/15 10:17:44;;;;;;;3.55;2.17;;;5.50;99.90;;;;;;4993950;28;20058;-48
2021/03/15 10:20:36;;;;;;;4.47;2.22;;;5.50;99.90;;;;;;4977788;28;20046;-48
2021/03/15 10:23:22;;;;;;;4.63;2.70;;;5.70;99.90;;;;;;4994246;28;20042;-49
2021/03/15 10:25:54;;;;;;;4.38;2.28;;;5.90;99.90;;;;;;4994045;28;20046;-55
2021/03/15 10:28:21;;;;;;;5.35;2.67;;;6.00;99.90;;;;;;4977874;28;20053;-50
2021/03/15 10:30:47;;;;;;;3.13;2.15;;;6.00;99.90;;;;;;5028055;28;20049;-51
2021/03/15 10:33:18;;;;;;;3.38;2.10;;;6.00;99.90;;;;;;5017217;28;20633;-48
2021/03/15 10:35:44;;;;;;;6.47;3.63;;;6.00;99.90;;;;;;5000456;28;20041;-48
2021/03/15 10:38:11;;;;;;;2.95;2.20;;;6.00;99.90;;;;;;5033328;28;20145;-48
2021/03/15 10:40:38;;;;;;;3.85;2.00;;;6.00;99.90;;;;;;5016838;28;20056;-48
2021/03/15 10:43:04;;;;;;;2.28;1.73;;;6.10;99.90;;;;;;5033060;28;20041;-48
2021/03/15 10:45:30;;;;;;;3.40;2.40;;;6.00;99.90;;;;;;5041488;28;20510;-48
2021/03/15 10:48:03;;;;;;;4.65;2.67;;;6.20;99.90;;;;;;5073138;28;20041;-49
2021/03/15 10:50:31;;;;;;;4.03;2.60;;;6.20;99.90;;;;;;5072909;28;20067;-48
2021/03/15 10:52:58;;;;;;;2.13;1.60;;;6.20;99.90;;;;;;5073958;28;20151;-48
2021/03/15 10:55:34;;;;;;;3.83;3.08;;;5.90;99.90;;;;;;5074703;28;20029;-48
2021/03/15 10:58:04;;;;;;;7.55;4.40;;;5.90;99.90;;;;;;5075201;28;20020;-48
2021/03/15 11:00:41;;;;;;;6.32;4.03;;;5.90;99.90;;;;;;5038476;28;20032;-50
2021/03/15 11:03:18;;;;;;;4.03;2.80;;;6.00;99.90;;;;;;5072496;28;20036;-48
2021/03/15 11:05:44;;;;;;;4.10;2.55;;;6.00;99.90;;;;;;5072410;28;20044;-49
2021/03/15 11:08:19;;;;;;;3.50;3.00;;;6.00;99.90;;;;;;5018167;28;20130;-48
2021/03/15 11:10:45;;;;;;;2.90;2.25;;;6.10;99.90;;;;;;5052348;28;20041;-48
2021/03/15 11:13:19;;;;;;;3.67;2.60;;;6.20;99.90;;;;;;5052439;28;20060;-49
2021/03/15 11:15:45;;;;;;;4.18;2.83;;;6.30;99.90;;;;;;5051932;28;20045;-50
2021/03/15 11:18:17;;;;;;;2.92;2.30;;;6.40;99.90;;;;;;5051613;28;20099;-47
2021/03/15 11:20:54;;;;;;;3.90;2.42;;;6.60;99.90;;;;;;5054583;28;20041;-48
2021/03/15 11:23:32;;;;;;;4.00;2.60;;;6.60;99.90;;;;;;5034943;28;20184;-48
2021/03/15 11:26:06;;;;;;;5.57;3.45;;;6.50;99.90;;;;;;5035506;28;20041;-49
2021/03/15 11:28:35;;;;;;;8.35;3.85;;;6.60;99.90;;;;;;5052043;28;20617;-49
2021/03/15 11:31:01;;;;;;;6.20;3.40;;;6.60;99.90;;;;;;5058026;28;20044;-48
2021/03/15 11:33:28;;;;;;;4.50;1.85;;;6.60;99.90;;;;;;5038606;28;20094;-49
2021/03/15 11:35:54;;;;;;;4.10;3.00;;;6.60;99.90;;;;;;5071399;28;20037;-47
2021/03/15 11:38:23;;;;;;;4.65;2.95;;;6.60;99.90;;;;;;5054914;28;20115;-48
2021/03/15 11:40:49;;;;;;;3.78;2.28;;;6.50;99.90;;;;;;5055102;28;20062;-49
2021/03/15 11:43:15;;;;;;;5.20;2.90;;;6.40;99.90;;;;;;5071644;28;20033;-49
2021/03/15 11:45:41;;;;;;;2.92;1.92;;;6.30;99.90;;;;;;5064238;28;20049;-55
2021/03/15 11:48:10;;;;;;;4.50;3.53;;;6.20;99.90;;;;;;5078241;28;20123;-48
2021/03/15 11:50:38;;;;;;;2.55;2.28;;;6.30;99.90;;;;;;5074789;28;20119;-50
2021/03/15 11:53:05;;;;;;;3.35;1.98;;;6.20;99.90;;;;;;5075126;28;20032;-48
2021/03/15 11:55:31;;;;;;;2.05;1.70;;;6.20;99.90;;;;;;5089749;28;20032;-48
2021/03/15 11:57:57;;;;;;;3.05;2.38;;;6.30;99.90;;;;;;5113822;28;20147;-47
2021/03/15 12:00:23;;;;;;;2.92;2.45;;;6.20;99.90;;;;;;5096373;28;20565;-49
2021/03/15 12:02:51;;;;;;;3.75;2.75;;;6.20;99.90;;;;;;5062617;28;20483;-49
2021/03/15 12:05:18;;;;;;;6.75;3.20;;;6.30;99.90;;;;;;5046587;28;20051;-47
2021/03/15 12:07:45;;;;;;;4.63;3.17;;;6.30;99.90;;;;;;5113330;28;20088;-47
2021/03/15 12:10:13;;;;;;;5.10;3.28;;;6.20;99.90;;;;;;5063234;28;20048;-47
2021/03/15 12:12:39;;;;;;;3.35;2.53;;;6.20;99.90;;;;;;5113480;28;20047;-49
2021/03/15 12:15:08;;;;;;;5.15;3.25;;;6.10;99.90;;;;;;5113344;28;20034;-48
2021/03/15 12:17:34;;;;;;;4.55;3.35;;;6.20;99.90;;;;;;5113374;28;20543;-47
2021/03/15 12:20:02;;;;;;;3.72;2.63;;;6.20;99.90;;;;;;5079218;28;20039;-46
2021/03/15 12:22:28;;;;;;;2.90;2.50;;;6.20;99.90;;;;;;5113113;28;20039;-47
2021/03/15 12:24:54;;;;;;;1.58;1.42;;;6.20;99.90;;;;;;5113204;28;20045;-47
2021/03/15 12:27:20;;;;;;;5.05;3.13;;;6.10;99.90;;;;;;5113239;28;20157;-47
2021/03/15 12:29:45;;;;;;;6.82;2.78;;;6.20;99.90;;;;;;5059428;28;20067;-47
2021/03/15 12:32:11;;;;;;;4.88;2.97;;;6.00;99.90;;;;;;5095329;28;20457;-47
2021/03/15 12:34:37;;;;;;;3.83;2.80;;;6.10;99.90;;;;;;5095372;28;20032;-47
2021/03/15 12:37:03;;;;;;;3.33;2.08;;;6.20;99.90;;;;;;5059404;28;20440;-47
2021/03/15 12:39:30;;;;;;;3.65;2.53;;;6.30;99.90;;;;;;5109167;28;20544;-51
2021/03/15 12:41:57;;;;;;;4.78;2.88;;;6.40;99.90;;;;;;5109507;28;20451;-46
2021/03/15 12:44:23;;;;;;;4.57;3.00;;;6.60;99.90;;;;;;5110020;28;20040;-45
2021/03/15 12:46:49;;;;;;;3.58;2.40;;;6.50;99.90;;;;;;5094958;28;20028;-47
2021/03/15 12:49:15;;;;;;;3.42;2.53;;;6.50;99.90;;;;;;5090962;28;20048;-48
2021/03/15 12:51:41;;;;;;;3.40;1.88;;;6.40;99.90;;;;;;5074415;28;20056;-49
2021/03/15 12:54:07;;;;;;;3.25;1.88;;;6.50;99.90;;;;;;5074264;28;20109;-47
2021/03/15 12:56:33;;;;;;;3.90;2.63;;;6.40;99.90;;;;;;5074965;28;20420;-45
2021/03/15 12:58:59;;;;;;;5.68;2.75;;;6.50;99.90;;;;;;5038817;28;20083;-48
2021/03/15 13:01:25;;;;;;;4.18;3.00;;;6.50;99.90;;;;;;5072594;28;20037;-48
2021/03/15 13:03:53;;;;;;;5.70;3.35;;;6.40;99.90;;;;;;5072332;28;20472;-46
2021/03/15 13:06:19;;;;;;;2.53;2.20;;;6.50;99.90;;;;;;5073899;28;20032;-47
2021/03/15 13:08:46;;;;;;;4.50;2.45;;;6.50;99.90;;;;;;5072296;28;20045;-45
2021/03/15 13:11:13;;;;;;;4.20;2.72;;;6.50;99.90;;;;;;5074311;28;20434;-47
2021/03/15 13:13:39;;;;;;;2.95;1.55;;;6.40;99.90;;;;;;5074261;28;20479;-46
2021/03/15 13:16:06;;;;;;;4.05;2.33;;;6.40;99.90;;;;;;5074201;28;20033;-47
2021/03/15 13:18:33;;;;;;;1.98;1.52;;;6.50;99.90;;;;;;5074121;28;20030;-48
2021/03/15 13:20:59;;;;;;;1.42;1.20;;;6.50;99.90;;;;;;5074183;28;20090;-50
2021/03/15 13:23:25;;;;;;;3.03;2.25;;;6.50;99.90;;;;;;5088905;28;20497;-44
2021/03/15 13:25:51;;;;;;;4.20;2.30;;;6.60;99.90;;;;;;5089201;28;20040;-49
2021/03/15 13:28:17;;;;;;;2.67;1.60;;;6.60;99.90;;;;;;5074027;28;20044;-45
2021/03/15 13:30:44;;;;;;;3.67;2.13;;;6.60;99.90;;;;;;5073620;28;20060;-46
2021/03/15 13:33:11;;;;;;;3.40;2.15;;;6.60;99.90;;;;;;5073953;28;20029;-48